Time;durP1;ratioP1;P1;durP2;ratioP2;P2;SDS_P1;SDS_P2;PMS_P1;PMS_P2;Temp;Humidity;BMP_temperature;BMP_pressure;BME280_temperature;BME280_humidity;BME280_pressure;Samples;Min_cycle;Max_cycle;Signal;HPM_P1;HPM_P2
2021/05/13 00:01:41;;;;;;;24.02;8.93;;;9.60;92.40;;;;;;4994318;28;20033;-67
2021/05/13 00:04:07;;;;;;;19.85;9.25;;;9.60;92.50;;;;;;4999208;28;20022;-67
2021/05/13 00:06:32;;;;;;;21.38;9.23;;;9.70;92.50;;;;;;4996208;28;20037;-67
2021/05/13 00:08:58;;;;;;;22.58;9.60;;;9.70;92.50;;;;;;4996848;28;20101;-67
2021/05/13 00:11:30;;;;;;;18.42;9.50;;;9.70;92.60;;;;;;4998396;28;20026;-68
2021/05/13 00:13:56;;;;;;;21.02;9.02;;;9.70;92.50;;;;;;4991393;28;20034;-68
2021/05/13 00:16:28;;;;;;;20.75;9.73;;;9.70;92.60;;;;;;5003257;28;20033;-68
2021/05/13 00:18:53;;;;;;;28.48;9.98;;;9.70;92.50;;;;;;4992814;28;20029;-68
2021/05/13 00:21:19;;;;;;;22.67;9.80;;;9.70;92.60;;;;;;5001278;28;20448;-67
2021/05/13 00:23:45;;;;;;;28.15;9.82;;;9.60;92.60;;;;;;5007212;28;20037;-68
2021/05/13 00:26:10;;;;;;;22.95;9.60;;;9.60;92.80;;;;;;4994455;28;20424;-68
2021/05/13 00:28:36;;;;;;;22.35;9.95;;;9.60;92.80;;;;;;4996684;28;20022;-67
2021/05/13 00:31:01;;;;;;;22.40;10.50;;;9.60;92.80;;;;;;4999852;28;20034;-67
2021/05/13 00:33:27;;;;;;;27.13;9.63;;;9.60;93.00;;;;;;5000244;28;20036;-68
2021/05/13 00:35:53;;;;;;;22.98;9.10;;;9.60;92.90;;;;;;4999763;28;20118;-67
2021/05/13 00:38:18;;;;;;;16.85;8.73;;;9.60;92.80;;;;;;4996782;28;20065;-67
2021/05/13 00:40:44;;;;;;;19.95;9.10;;;9.60;93.00;;;;;;4996019;28;20537;-67
2021/05/13 00:43:09;;;;;;;18.88;9.18;;;9.50;92.90;;;;;;5003161;28;20079;-68
2021/05/13 00:45:35;;;;;;;20.00;9.23;;;9.60;93.00;;;;;;4999914;28;20092;-67
2021/05/13 00:48:05;;;;;;;19.05;9.07;;;9.60;93.00;;;;;;4997499;28;20030;-67
2021/05/13 00:50:33;;;;;;;23.27;9.55;;;9.50;93.10;;;;;;4998912;28;20045;-67
2021/05/13 00:53:07;;;;;;;19.73;9.00;;;9.50;93.10;;;;;;4996140;28;20034;-67
2021/05/13 00:55:33;;;;;;;23.80;9.35;;;9.50;93.20;;;;;;4993773;28;20026;-68
2021/05/13 00:57:59;;;;;;;21.05;9.82;;;9.50;93.30;;;;;;5011799;28;20030;-67
2021/05/13 01:00:44;;;;;;;26.35;9.40;;;9.40;93.20;;;;;;4996021;28;20052;-67
2021/05/13 01:03:10;;;;;;;25.08;8.65;;;9.50;93.30;;;;;;4992862;28;20477;-67
2021/05/13 01:05:37;;;;;;;27.52;10.20;;;9.50;93.20;;;;;;5000012;28;20036;-67
2021/05/13 01:08:03;;;;;;;20.67;9.68;;;9.40;93.40;;;;;;5013981;28;20026;-67
2021/05/13 01:10:30;;;;;;;23.65;8.35;;;9.50;93.40;;;;;;4986712;28;20486;-67
2021/05/13 01:13:07;;;;;;;27.27;9.70;;;9.40;93.20;;;;;;5000940;28;20033;-67
2021/05/13 01:15:40;;;;;;;28.20;10.40;;;9.40;93.40;;;;;;5004716;28;20040;-68
2021/05/13 01:18:21;;;;;;;23.42;10.05;;;9.40;93.60;;;;;;5004240;28;20472;-67
2021/05/13 01:20:48;;;;;;;24.25;9.85;;;9.40;93.50;;;;;;4997044;28;20033;-67
2021/05/13 01:23:14;;;;;;;26.40;10.65;;;9.30;93.60;;;;;;5007562;28;20025;-67
2021/05/13 01:25:45;;;;;;;27.85;11.70;;;9.40;93.70;;;;;;4995294;28;20128;-68
2021/05/13 01:28:11;;;;;;;25.80;11.18;;;9.30;93.70;;;;;;5004274;28;20113;-67
2021/05/13 01:30:37;;;;;;;25.42;10.50;;;9.30;93.80;;;;;;5001079;28;20406;-67
2021/05/13 01:33:03;;;;;;;21.30;10.63;;;9.30;93.80;;;;;;5006322;28;20034;-67
2021/05/13 01:35:29;;;;;;;24.45;12.43;;;9.30;93.70;;;;;;4998694;28;20030;-68
2021/05/13 01:38:13;;;;;;;25.27;11.55;;;9.30;93.90;;;;;;5003505;28;20029;-67
2021/05/13 01:40:40;;;;;;;26.23;11.55;;;9.30;93.90;;;;;;5000997;28;20163;-67
2021/05/13 01:43:06;;;;;;;28.58;12.02;;;9.30;94.10;;;;;;5002260;28;20105;-67
2021/05/13 01:45:32;;;;;;;32.78;13.05;;;9.30;94.10;;;;;;4997727;28;20493;-68
2021/05/13 01:48:03;;;;;;;32.15;12.68;;;9.20;94.20;;;;;;5018940;28;20041;-68
2021/05/13 01:50:33;;;;;;;32.72;12.73;;;9.20;94.10;;;;;;5005048;28;20052;-67
2021/05/13 01:53:05;;;;;;;29.27;12.85;;;9.10;94.30;;;;;;4995414;28;20493;-67
2021/05/13 01:55:32;;;;;;;28.88;12.40;;;9.10;94.30;;;;;;4998298;28;20032;-68
2021/05/13 01:57:58;;;;;;;32.67;14.48;;;9.10;94.30;;;;;;5007450;28;20105;-68
2021/05/13 02:00:24;;;;;;;31.20;13.32;;;9.10;94.30;;;;;;5001219;28;20136;-67
2021/05/13 02:02:50;;;;;;;26.85;13.88;;;9.10;94.40;;;;;;5000973;28;20437;-67
2021/05/13 02:05:18;;;;;;;31.65;13.82;;;9.10;94.40;;;;;;5011940;28;20027;-67
2021/05/13 02:07:44;;;;;;;33.63;14.00;;;9.10;94.30;;;;;;5011578;28;20079;-67
2021/05/13 02:10:10;;;;;;;32.58;13.95;;;9.10;94.50;;;;;;5002901;28;20021;-68
2021/05/13 02:12:37;;;;;;;29.00;13.40;;;9.10;94.70;;;;;;5001987;28;20022;-68
2021/05/13 02:15:06;;;;;;;30.45;14.70;;;9.10;94.60;;;;;;5002573;28;20034;-67
2021/05/13 02:17:32;;;;;;;32.00;14.70;;;9.10;94.60;;;;;;5017205;28;20211;-68
2021/05/13 02:19:58;;;;;;;40.08;14.90;;;9.10;94.50;;;;;;4996252;28;20385;-67
2021/05/13 02:22:23;;;;;;;29.30;13.95;;;9.10;94.50;;;;;;5007729;28;20033;-67
2021/05/13 02:24:49;;;;;;;32.90;14.77;;;9.10;94.60;;;;;;5001138;28;20061;-67
2021/05/13 02:27:15;;;;;;;39.45;15.10;;;9.10;94.50;;;;;;5002467;28;20029;-67
2021/05/13 02:29:40;;;;;;;33.83;14.98;;;9.10;94.60;;;;;;5012464;28;20037;-67
2021/05/13 02:32:06;;;;;;;37.15;14.30;;;9.00;94.80;;;;;;4998302;28;20025;-67
2021/05/13 02:34:32;;;;;;;30.40;14.20;;;9.10;94.80;;;;;;5004799;28;20037;-69
2021/05/13 02:36:57;;;;;;;38.55;14.43;;;9.10;94.80;;;;;;4990921;28;20506;-68
2021/05/13 02:39:23;;;;;;;39.33;15.40;;;9.10;94.70;;;;;;5009825;28;20048;-67
2021/05/13 02:41:48;;;;;;;32.90;15.70;;;9.00;94.80;;;;;;5001858;28;20030;-67
2021/05/13 02:44:14;;;;;;;29.50;15.05;;;9.00;95.00;;;;;;5006363;28;20433;-66
2021/05/13 02:46:40;;;;;;;33.75;15.63;;;9.10;95.00;;;;;;5016727;28;20110;-67
2021/05/13 02:49:05;;;;;;;32.80;14.68;;;9.10;95.00;;;;;;5006665;28;20489;-67
2021/05/13 02:51:31;;;;;;;35.20;16.23;;;9.00;95.00;;;;;;5010843;28;20064;-67
2021/05/13 02:53:57;;;;;;;36.30;16.70;;;9.00;95.10;;;;;;4993578;28;20025;-67
2021/05/13 02:56:22;;;;;;;33.70;15.60;;;9.10;95.20;;;;;;4994500;28;20034;-67
2021/05/13 02:58:49;;;;;;;40.78;16.55;;;9.10;95.10;;;;;;5014045;28;20040;-67
2021/05/13 03:01:29;;;;;;;38.63;16.52;;;9.10;95.10;;;;;;4996565;28;20030;-67
2021/05/13 03:03:57;;;;;;;39.25;17.17;;;9.10;95.10;;;;;;5012584;28;20150;-67
2021/05/13 03:06:24;;;;;;;36.13;17.13;;;9.10;95.00;;;;;;5014969;28;20022;-68
2021/05/13 03:08:53;;;;;;;33.08;16.45;;;9.10;95.00;;;;;;5006752;28;20164;-66
2021/05/13 03:11:23;;;;;;;31.50;16.80;;;9.10;95.20;;;;;;5000586;28;20113;-67
2021/05/13 03:13:53;;;;;;;39.55;16.60;;;9.00;95.10;;;;;;5001156;28;20066;-68
2021/05/13 03:16:19;;;;;;;36.65;16.13;;;9.10;95.30;;;;;;5005850;28;20049;-67
2021/05/13 03:18:50;;;;;;;32.58;16.85;;;9.10;95.30;;;;;;5011463;28;20037;-67
2021/05/13 03:21:26;;;;;;;37.13;16.10;;;9.10;95.20;;;;;;5003081;28;20187;-68
2021/05/13 03:26:26;;;;;;;39.33;17.27;;;9.10;95.10;;;;;;5004040;28;20029;-67
2021/05/13 03:28:51;;;;;;;41.42;17.50;;;9.10;95.10;;;;;;5006200;28;20048;-67
2021/05/13 03:31:17;;;;;;;35.67;16.67;;;9.10;95.10;;;;;;4995546;28;20592;-68
2021/05/13 03:33:42;;;;;;;32.75;15.95;;;9.10;95.20;;;;;;4992904;28;20092;-67
2021/05/13 03:36:08;;;;;;;43.38;17.67;;;9.10;95.10;;;;;;5007715;28;20057;-68
2021/05/13 03:38:33;;;;;;;30.23;17.33;;;9.10;95.20;;;;;;4997430;28;20523;-66
2021/05/13 03:40:59;;;;;;;35.53;17.67;;;9.10;95.10;;;;;;5005724;28;20406;-67
2021/05/13 03:43:25;;;;;;;38.22;16.90;;;9.10;95.10;;;;;;5002152;28;20026;-67
2021/05/13 03:45:50;;;;;;;39.60;17.65;;;9.10;95.20;;;;;;5014639;28;20592;-68
2021/05/13 03:48:16;;;;;;;43.20;18.38;;;9.10;95.20;;;;;;5017466;28;20029;-67
2021/05/13 03:50:41;;;;;;;41.10;18.52;;;9.10;95.40;;;;;;5003346;28;20037;-67
2021/05/13 03:53:08;;;;;;;46.53;20.85;;;9.10;95.30;;;;;;5012880;28;20153;-67
2021/05/13 03:55:33;;;;;;;40.97;19.90;;;9.10;95.40;;;;;;4997023;28;20042;-68
2021/05/13 03:58:01;;;;;;;42.75;19.67;;;9.10;95.40;;;;;;4998983;28;20140;-67
2021/05/13 04:00:38;;;;;;;38.13;19.52;;;9.10;95.30;;;;;;4998938;28;20076;-67
2021/05/13 04:03:04;;;;;;;40.53;20.23;;;9.20;95.30;;;;;;5013608;28;20030;-67
2021/05/13 04:05:29;;;;;;;35.38;19.25;;;9.10;95.10;;;;;;5012302;28;20079;-67
2021/05/13 04:07:56;;;;;;;44.92;20.65;;;9.10;95.20;;;;;;5000200;28;20117;-67
2021/05/13 04:10:22;;;;;;;43.30;21.10;;;9.10;95.40;;;;;;4996623;28;20164;-67
2021/05/13 04:12:51;;;;;;;47.50;20.58;;;9.20;95.30;;;;;;4995050;28;20415;-67
2021/05/13 04:15:16;;;;;;;43.63;19.73;;;9.20;95.30;;;;;;4996840;28;20030;-67
2021/05/13 04:17:42;;;;;;;44.15;18.88;;;9.20;95.20;;;;;;5001137;28;20080;-67
2021/05/13 04:20:08;;;;;;;43.17;20.50;;;9.20;95.20;;;;;;5006536;28;20497;-67
2021/05/13 04:22:35;;;;;;;42.58;20.15;;;9.10;95.20;;;;;;5018460;28;20049;-61
2021/05/13 04:25:01;;;;;;;39.03;19.98;;;9.20;95.30;;;;;;5014106;28;20026;-61
2021/05/13 04:27:26;;;;;;;41.55;19.52;;;9.30;95.30;;;;;;5004902;28;20018;-61
2021/05/13 04:29:52;;;;;;;42.42;19.92;;;9.30;95.10;;;;;;5012445;28;20440;-61
2021/05/13 04:32:18;;;;;;;42.53;19.17;;;9.30;95.10;;;;;;5014032;28;20446;-61
2021/05/13 04:34:43;;;;;;;35.78;19.17;;;9.30;95.00;;;;;;4988798;28;20030;-60
2021/05/13 04:37:09;;;;;;;35.90;19.50;;;9.40;94.90;;;;;;4997564;28;20034;-61
2021/05/13 04:39:35;;;;;;;45.80;19.45;;;9.40;95.00;;;;;;4995134;28;20032;-61
2021/05/13 04:42:00;;;;;;;45.15;19.90;;;9.50;95.00;;;;;;5003424;28;20489;-60
2021/05/13 04:44:26;;;;;;;43.67;20.13;;;9.60;94.90;;;;;;5002421;28;20029;-60
2021/05/13 04:46:58;;;;;;;41.90;18.40;;;9.60;94.70;;;;;;5003440;28;20565;-59
2021/05/13 04:49:24;;;;;;;36.78;19.42;;;9.70;94.50;;;;;;5003901;28;20021;-61
2021/05/13 04:51:50;;;;;;;40.72;19.73;;;9.70;94.20;;;;;;5008858;28;20054;-61
2021/05/13 04:54:17;;;;;;;39.22;19.35;;;9.80;94.50;;;;;;5004975;28;20030;-61
2021/05/13 04:56:44;;;;;;;34.53;17.15;;;9.80;94.20;;;;;;5007247;28;20436;-60
2021/05/13 04:59:09;;;;;;;38.40;17.50;;;9.80;94.30;;;;;;4999059;28;20648;-59
2021/05/13 05:01:35;;;;;;;37.60;18.15;;;9.80;94.20;;;;;;4995782;28;20118;-61
2021/05/13 05:04:01;;;;;;;41.50;19.33;;;9.80;94.10;;;;;;4988555;28;20375;-61
2021/05/13 05:06:28;;;;;;;38.30;17.48;;;9.80;94.10;;;;;;5002716;28;20030;-61
2021/05/13 05:08:54;;;;;;;29.65;18.13;;;9.70;93.90;;;;;;4996109;28;20680;-61
2021/05/13 05:11:20;;;;;;;40.60;19.02;;;9.60;94.20;;;;;;5020645;28;20475;-61
2021/05/13 05:13:47;;;;;;;35.70;18.38;;;9.60;94.20;;;;;;5007823;28;20057;-59
2021/05/13 05:16:12;;;;;;;37.50;19.20;;;9.60;94.30;;;;;;4999306;28;20774;-60
2021/05/13 05:18:38;;;;;;;34.42;18.38;;;9.60;94.40;;;;;;4998304;28;20057;-61
2021/05/13 05:21:04;;;;;;;33.25;17.98;;;9.70;94.30;;;;;;5024416;28;20037;-61
2021/05/13 05:23:30;;;;;;;34.03;18.23;;;9.80;94.20;;;;;;5005918;28;20026;-61
2021/05/13 05:25:57;;;;;;;36.70;18.17;;;9.80;94.00;;;;;;5004445;28;20089;-61
2021/05/13 05:28:24;;;;;;;33.25;17.88;;;9.80;94.10;;;;;;5022396;28;20384;-61
2021/05/13 05:30:49;;;;;;;35.33;16.63;;;9.80;94.00;;;;;;5005698;28;20479;-61
2021/05/13 05:33:15;;;;;;;34.63;17.52;;;9.70;93.70;;;;;;5017388;28;20048;-61
2021/05/13 05:35:41;;;;;;;32.67;18.10;;;9.70;94.10;;;;;;4998837;28;20026;-61
2021/05/13 05:38:08;;;;;;;29.75;16.25;;;9.70;94.20;;;;;;4992765;28;20034;-61
2021/05/13 05:40:35;;;;;;;34.78;16.95;;;9.80;94.00;;;;;;4990067;28;20029;-61
2021/05/13 05:43:00;;;;;;;29.58;16.65;;;9.70;94.10;;;;;;4989991;28;20446;-60
2021/05/13 05:45:26;;;;;;;33.22;16.70;;;9.80;94.10;;;;;;5000261;28;20270;-63
2021/05/13 05:48:01;;;;;;;33.67;16.48;;;9.80;94.10;;;;;;5002011;28;20030;-63
2021/05/13 05:50:32;;;;;;;40.35;18.02;;;9.80;94.10;;;;;;5004061;28;20473;-63
2021/05/13 05:52:58;;;;;;;28.25;17.10;;;9.80;94.30;;;;;;5012528;28;20105;-62
2021/05/13 05:55:24;;;;;;;35.15;17.15;;;9.80;94.30;;;;;;4993012;28;20030;-62
2021/05/13 05:57:50;;;;;;;33.78;16.90;;;9.70;94.30;;;;;;4993888;28;20081;-63
2021/05/13 06:00:16;;;;;;;32.40;16.48;;;9.80;94.30;;;;;;5006639;28;20022;-61
2021/05/13 06:02:41;;;;;;;31.05;16.73;;;9.90;94.10;;;;;;4990817;28;20109;-61
2021/05/13 06:05:07;;;;;;;35.95;16.98;;;10.00;94.10;;;;;;5000840;28;21105;-62
2021/05/13 06:07:33;;;;;;;33.08;15.90;;;10.00;94.00;;;;;;5001916;28;20018;-62
2021/05/13 06:09:59;;;;;;;26.92;15.45;;;10.00;94.10;;;;;;5005999;28;20091;-62
2021/05/13 06:12:25;;;;;;;30.17;15.52;;;10.10;93.90;;;;;;5001223;28;20453;-63
2021/05/13 06:14:51;;;;;;;26.60;13.27;;;10.10;93.90;;;;;;5011275;28;20032;-62
2021/05/13 06:17:16;;;;;;;29.15;14.35;;;10.10;93.50;;;;;;4998056;28;20026;-61
2021/05/13 06:19:42;;;;;;;25.70;14.27;;;10.10;93.80;;;;;;5007460;28;20091;-62
2021/05/13 06:22:08;;;;;;;29.63;14.00;;;10.20;93.80;;;;;;5001575;28;20041;-62
2021/05/13 06:24:34;;;;;;;26.40;12.95;;;10.30;93.70;;;;;;5008743;28;20021;-63
2021/05/13 06:27:01;;;;;;;21.38;12.07;;;10.20;92.80;;;;;;5003439;28;20380;-60
2021/05/13 06:29:28;;;;;;;22.50;14.10;;;10.10;93.00;;;;;;4995198;28;20354;-62
2021/05/13 06:31:55;;;;;;;20.27;11.60;;;10.20;93.20;;;;;;5005122;28;20065;-62
2021/05/13 06:34:21;;;;;;;22.55;12.85;;;10.10;93.10;;;;;;5003197;28;20033;-63
2021/05/13 06:36:46;;;;;;;26.33;11.98;;;10.20;93.30;;;;;;4991930;28;20046;-63
2021/05/13 06:39:12;;;;;;;21.40;13.05;;;10.10;93.20;;;;;;4976566;28;20035;-60
2021/05/13 06:41:40;;;;;;;23.38;12.95;;;10.00;93.50;;;;;;4978169;28;20034;-64
2021/05/13 06:44:06;;;;;;;24.60;13.48;;;10.00;93.60;;;;;;4975080;28;20550;-65
2021/05/13 06:46:31;;;;;;;27.48;13.20;;;10.10;93.80;;;;;;4977428;28;20109;-62
2021/05/13 06:48:57;;;;;;;25.27;13.68;;;10.30;93.70;;;;;;4981270;28;20040;-65
2021/05/13 06:51:23;;;;;;;23.60;13.38;;;10.40;93.60;;;;;;4973129;28;20035;-64
2021/05/13 06:53:49;;;;;;;22.15;12.68;;;10.50;93.40;;;;;;4976246;28;20282;-64
2021/05/13 06:56:15;;;;;;;22.52;12.93;;;10.40;92.90;;;;;;4978634;28;20034;-64
2021/05/13 06:58:41;;;;;;;25.38;13.38;;;10.40;93.30;;;;;;4981413;28;20160;-63
2021/05/13 07:01:07;;;;;;;29.67;14.13;;;10.30;93.20;;;;;;4978541;28;20447;-64
2021/05/13 07:03:32;;;;;;;23.80;14.10;;;10.30;93.30;;;;;;4970890;28;20019;-64
2021/05/13 07:05:58;;;;;;;26.98;14.38;;;10.30;93.40;;;;;;4977700;28;20027;-69
2021/05/13 07:08:24;;;;;;;22.60;12.82;;;10.30;93.20;;;;;;4972997;28;20101;-65
2021/05/13 07:10:50;;;;;;;24.83;13.55;;;10.20;93.20;;;;;;4976930;28;20482;-63
2021/05/13 07:13:16;;;;;;;24.52;13.85;;;10.40;93.30;;;;;;4980162;28;20221;-65
2021/05/13 07:15:41;;;;;;;23.30;12.85;;;10.40;93.40;;;;;;4975858;28;20087;-65
2021/05/13 07:18:14;;;;;;;26.38;12.40;;;10.20;93.30;;;;;;4975590;28;20114;-63
2021/05/13 07:20:41;;;;;;;20.65;12.82;;;10.30;93.20;;;;;;4974362;28;20157;-64
2021/05/13 07:23:07;;;;;;;20.42;11.98;;;10.40;93.20;;;;;;4976405;28;20409;-61
2021/05/13 07:25:33;;;;;;;24.65;12.73;;;10.40;93.00;;;;;;4971741;28;20039;-63
2021/05/13 07:28:00;;;;;;;23.27;13.10;;;10.50;92.90;;;;;;4977164;28;20068;-63
2021/05/13 07:30:26;;;;;;;24.25;13.65;;;10.50;93.10;;;;;;4976130;28;20493;-64
2021/05/13 07:32:52;;;;;;;26.38;12.68;;;10.50;93.00;;;;;;4980350;28;20113;-65
2021/05/13 07:35:19;;;;;;;20.10;12.02;;;10.60;92.60;;;;;;4976558;28;20121;-65
2021/05/13 07:37:45;;;;;;;22.20;12.35;;;10.60;92.40;;;;;;4976635;28;20041;-65
2021/05/13 07:40:12;;;;;;;21.13;11.52;;;10.60;92.40;;;;;;4979794;28;20026;-66
2021/05/13 07:42:38;;;;;;;28.38;12.07;;;10.60;92.30;;;;;;4976103;28;20487;-64
2021/05/13 07:45:05;;;;;;;21.70;12.35;;;10.60;92.40;;;;;;4970576;28;20030;-65
2021/05/13 07:47:37;;;;;;;25.00;12.30;;;10.70;92.60;;;;;;4976510;28;20031;-65
2021/05/13 07:50:04;;;;;;;22.33;11.00;;;10.70;92.50;;;;;;4976788;28;20363;-62
2021/05/13 07:52:30;;;;;;;16.75;10.98;;;10.60;91.90;;;;;;4982215;28;20198;-65
2021/05/13 07:54:55;;;;;;;15.50;10.20;;;10.60;92.10;;;;;;4974262;28;20114;-65
2021/05/13 07:57:21;;;;;;;20.10;10.65;;;10.70;91.90;;;;;;4979611;28;20039;-62
2021/05/13 07:59:46;;;;;;;22.25;10.38;;;10.80;91.70;;;;;;4973489;28;20058;-63
2021/05/13 08:02:12;;;;;;;16.35;9.90;;;10.80;91.60;;;;;;4977501;28;20026;-63
2021/05/13 08:04:38;;;;;;;17.88;10.35;;;10.90;91.10;;;;;;4976916;28;20027;-62
2021/05/13 08:07:03;;;;;;;16.50;10.05;;;11.10;91.30;;;;;;4982177;28;20263;-63
2021/05/13 08:09:29;;;;;;;21.00;10.77;;;10.90;90.70;;;;;;4977242;28;20105;-64
2021/05/13 08:11:54;;;;;;;21.05;11.48;;;11.00;91.20;;;;;;4969753;28;20057;-63
2021/05/13 08:14:20;;;;;;;23.85;12.55;;;10.90;91.10;;;;;;4970309;28;20022;-61
2021/05/13 08:16:45;;;;;;;23.38;12.10;;;11.00;91.20;;;;;;4973395;28;20403;-64
2021/05/13 08:19:11;;;;;;;23.88;12.82;;;11.00;91.10;;;;;;4985700;28;20030;-64
2021/05/13 08:21:37;;;;;;;21.45;11.45;;;11.00;91.60;;;;;;4976493;28;20026;-62
2021/05/13 08:24:03;;;;;;;18.75;11.82;;;11.10;91.40;;;;;;4979822;28;20494;-63
2021/05/13 08:26:28;;;;;;;18.30;11.25;;;11.20;91.50;;;;;;4978556;28;20461;-64
2021/05/13 08:28:55;;;;;;;27.67;11.88;;;11.40;91.00;;;;;;4983091;28;20027;-63
2021/05/13 08:31:20;;;;;;;24.50;10.25;;;11.60;89.90;;;;;;4974300;28;20475;-63
2021/05/13 08:33:46;;;;;;;19.60;10.93;;;11.60;89.50;;;;;;4976877;28;20039;-64
2021/05/13 08:36:12;;;;;;;24.98;10.85;;;11.70;89.50;;;;;;4969958;28;20538;-60
2021/05/13 08:38:37;;;;;;;19.58;10.60;;;11.40;89.70;;;;;;4983921;28;20034;-62
2021/05/13 08:41:04;;;;;;;17.50;10.13;;;11.30;90.50;;;;;;4981057;28;20128;-63
2021/05/13 08:43:30;;;;;;;21.40;9.52;;;11.70;90.30;;;;;;4970522;28;20022;-63
2021/05/13 08:45:57;;;;;;;18.05;9.77;;;11.80;90.10;;;;;;4971542;28;20068;-63
2021/05/13 08:48:25;;;;;;;16.63;10.27;;;11.70;89.60;;;;;;4983292;28;20117;-68
2021/05/13 08:50:52;;;;;;;20.23;11.02;;;11.40;90.20;;;;;;4974728;28;20042;-60
2021/05/13 08:53:19;;;;;;;20.48;11.15;;;11.30;91.10;;;;;;4974074;28;20054;-62
2021/05/13 08:55:45;;;;;;;19.52;10.65;;;11.30;91.00;;;;;;4974644;28;20590;-61
2021/05/13 08:58:11;;;;;;;16.55;10.18;;;11.30;91.10;;;;;;4973125;28;20042;-62
2021/05/13 09:00:37;;;;;;;14.98;9.60;;;11.50;90.00;;;;;;4967698;28;20526;-62
2021/05/13 09:03:03;;;;;;;13.82;8.65;;;11.50;90.10;;;;;;4971538;28;20037;-62
2021/05/13 09:05:29;;;;;;;14.48;8.88;;;11.80;90.00;;;;;;4980603;28;20129;-63
2021/05/13 09:07:55;;;;;;;14.30;8.32;;;12.00;89.50;;;;;;4971647;28;20139;-62
2021/05/13 09:10:23;;;;;;;11.57;7.90;;;12.00;88.70;;;;;;4971189;28;20487;-62
2021/05/13 09:12:49;;;;;;;12.07;8.18;;;12.00;88.50;;;;;;4967358;28;20066;-62
2021/05/13 09:15:20;;;;;;;12.80;8.60;;;12.00;88.80;;;;;;4969695;28;20391;-61
2021/05/13 09:18:06;;;;;;;13.18;8.40;;;11.90;88.60;;;;;;4976855;28;20494;-62
2021/05/13 09:20:39;;;;;;;12.57;8.18;;;11.90;88.80;;;;;;4972946;28;20069;-60
2021/05/13 09:23:11;;;;;;;13.70;8.88;;;12.00;88.80;;;;;;4966719;28;20027;-61
2021/05/13 09:25:37;;;;;;;13.95;8.75;;;12.00;88.40;;;;;;4970692;28;20022;-62
2021/05/13 09:28:03;;;;;;;13.98;8.77;;;11.90;88.80;;;;;;4971594;28;20026;-62
2021/05/13 09:30:29;;;;;;;14.35;8.27;;;11.70;88.70;;;;;;4970324;28;20034;-62
2021/05/13 09:32:56;;;;;;;13.57;8.40;;;11.80;88.00;;;;;;4971194;28;20027;-62
2021/05/13 09:35:32;;;;;;;14.60;8.93;;;11.80;88.20;;;;;;4986305;28;20019;-64
2021/05/13 09:37:59;;;;;;;13.25;7.93;;;12.00;88.50;;;;;;4984826;28;20045;-64
2021/05/13 09:40:35;;;;;;;13.57;8.68;;;12.00;88.20;;;;;;4981106;28;20019;-63
2021/05/13 09:43:13;;;;;;;11.18;7.65;;;12.20;87.60;;;;;;4983611;28;20062;-65
2021/05/13 09:45:58;;;;;;;11.73;7.78;;;12.10;87.70;;;;;;4984239;28;20137;-64
2021/05/13 09:48:41;;;;;;;10.30;6.88;;;12.30;87.20;;;;;;4975953;28;20423;-63
2021/05/13 09:51:29;;;;;;;12.93;6.95;;;12.40;88.10;;;;;;4978221;28;20035;-65
2021/05/13 09:54:12;;;;;;;10.93;7.20;;;12.30;86.70;;;;;;4980380;28;20035;-64
2021/05/13 09:56:46;;;;;;;11.00;7.45;;;12.30;86.10;;;;;;4989355;28;20042;-63
2021/05/13 09:59:34;;;;;;;12.45;6.97;;;12.30;86.80;;;;;;4973887;28;20126;-65
2021/05/13 10:02:03;;;;;;;9.30;7.03;;;12.10;86.70;;;;;;4970034;28;20372;-63
2021/05/13 10:04:29;;;;;;;12.27;6.95;;;12.10;87.60;;;;;;4980989;28;20030;-65
2021/05/13 10:06:55;;;;;;;11.02;6.82;;;12.20;87.20;;;;;;4982827;28;20076;-65
2021/05/13 10:09:22;;;;;;;9.75;6.57;;;12.10;86.90;;;;;;4979972;28;20035;-65
2021/05/13 10:11:55;;;;;;;10.93;6.95;;;12.10;87.10;;;;;;4977957;28;20482;-66
2021/05/13 10:14:22;;;;;;;12.27;6.95;;;12.10;87.00;;;;;;4988531;28;20042;-66
2021/05/13 10:16:50;;;;;;;10.73;6.82;;;12.30;87.20;;;;;;4978296;28;20026;-64
2021/05/13 10:19:29;;;;;;;12.07;7.07;;;12.10;87.30;;;;;;4984644;28;20026;-65
2021/05/13 10:21:59;;;;;;;11.35;6.70;;;11.90;88.30;;;;;;4975638;28;20034;-64
2021/05/13 10:24:25;;;;;;;13.10;7.30;;;12.00;88.10;;;;;;4979410;28;20085;-64
2021/05/13 10:26:51;;;;;;;11.68;7.28;;;11.90;88.00;;;;;;4980452;28;20030;-66
2021/05/13 10:29:20;;;;;;;11.10;7.22;;;12.00;87.90;;;;;;4980201;28;20038;-66
2021/05/13 10:32:26;;;;;;;13.27;7.20;;;11.90;87.90;;;;;;4973563;28;20027;-65
2021/05/13 10:34:57;;;;;;;9.80;6.50;;;11.80;88.40;;;;;;4977955;28;20422;-66
2021/05/13 10:37:35;;;;;;;11.30;6.47;;;11.80;88.50;;;;;;4984652;28;20026;-65
2021/05/13 10:40:20;;;;;;;11.07;6.70;;;11.80;88.60;;;;;;4976325;28;20030;-66
2021/05/13 10:42:56;;;;;;;11.57;6.85;;;11.80;88.40;;;;;;4975869;28;20033;-65
2021/05/13 10:45:24;;;;;;;12.23;7.15;;;11.80;88.80;;;;;;4994216;28;20190;-64
2021/05/13 10:48:12;;;;;;;11.88;7.18;;;11.70;88.40;;;;;;4981048;28;20034;-62
2021/05/13 10:50:57;;;;;;;12.15;7.15;;;11.70;88.20;;;;;;4984667;28;20106;-62
2021/05/13 10:56:29;;;;;;;10.85;7.28;;;11.70;88.60;;;;;;4987644;28;20054;-62
2021/05/13 10:59:07;;;;;;;11.25;7.38;;;11.60;88.60;;;;;;4972867;28;20023;-63
2021/05/13 11:01:53;;;;;;;10.35;6.82;;;11.50;89.20;;;;;;4987562;28;20022;-60
2021/05/13 11:04:22;;;;;;;10.20;6.43;;;11.60;89.30;;;;;;4989668;28;20038;-60
2021/05/13 11:06:51;;;;;;;9.43;6.72;;;11.70;88.90;;;;;;4979570;28;20030;-61
2021/05/13 11:09:39;;;;;;;9.10;6.20;;;11.60;88.90;;;;;;4987246;28;20491;-61
2021/05/13 11:12:14;;;;;;;10.70;6.50;;;11.70;88.60;;;;;;4967851;28;20064;-65
2021/05/13 11:14:59;;;;;;;11.35;6.88;;;11.80;88.60;;;;;;4983459;28;20054;-65
2021/05/13 11:17:57;;;;;;;10.80;7.55;;;11.80;88.50;;;;;;4975045;28;20398;-63
2021/05/13 11:20:56;;;;;;;9.90;7.88;;;11.80;88.80;;;;;;4976864;28;20042;-64
2021/05/13 11:23:24;;;;;;;14.48;8.57;;;11.80;88.70;;;;;;4975232;28;20023;-64
2021/05/13 11:25:54;;;;;;;12.77;8.10;;;11.90;88.40;;;;;;4983422;28;20105;-64
2021/05/13 11:28:43;;;;;;;11.57;7.72;;;11.80;88.00;;;;;;4970938;28;20049;-63
2021/05/13 11:31:18;;;;;;;11.82;7.68;;;11.90;88.70;;;;;;4998911;28;20120;-65
2021/05/13 11:33:56;;;;;;;11.25;7.28;;;11.70;88.70;;;;;;4993617;28;20053;-62
2021/05/13 11:36:27;;;;;;;11.57;7.63;;;11.50;89.40;;;;;;5008980;28;20129;-64
2021/05/13 11:39:07;;;;;;;13.27;8.90;;;11.50;89.90;;;;;;5017275;28;20034;-63
2021/05/13 11:41:32;;;;;;;16.05;8.27;;;11.40;90.00;;;;;;4994826;28;20033;-62
2021/05/13 11:43:58;;;;;;;14.10;7.80;;;11.40;90.10;;;;;;5012210;28;20034;-63
2021/05/13 11:46:26;;;;;;;10.70;7.38;;;11.50;90.30;;;;;;4996710;28;20022;-62
2021/05/13 11:48:53;;;;;;;11.13;7.15;;;11.70;90.20;;;;;;5002851;28;20072;-62
2021/05/13 11:51:23;;;;;;;9.85;7.03;;;12.00;89.60;;;;;;5000834;28;20100;-62
2021/05/13 11:53:52;;;;;;;10.77;6.32;;;12.20;89.10;;;;;;4990916;28;20041;-63
2021/05/13 11:56:18;;;;;;;10.60;6.85;;;12.10;88.30;;;;;;4997891;28;20026;-64
2021/05/13 11:58:52;;;;;;;10.98;6.68;;;12.10;88.50;;;;;;4991515;28;20034;-63
2021/05/13 12:01:25;;;;;;;11.43;5.90;;;12.00;88.70;;;;;;4990044;28;20030;-62
2021/05/13 12:04:12;;;;;;;10.68;6.43;;;12.10;88.60;;;;;;4982676;28;20049;-63
2021/05/13 12:07:02;;;;;;;9.73;6.57;;;12.00;88.50;;;;;;4990144;28;20394;-62
2021/05/13 12:09:30;;;;;;;12.13;6.63;;;11.90;88.80;;;;;;5001703;28;20054;-64
2021/05/13 12:11:56;;;;;;;11.07;6.10;;;12.10;88.40;;;;;;4995212;28;20579;-61
2021/05/13 12:14:26;;;;;;;7.40;6.05;;;12.00;88.50;;;;;;4998411;28;20474;-63
2021/05/13 12:16:56;;;;;;;10.38;6.00;;;12.10;88.00;;;;;;4996302;28;20030;-63
2021/05/13 12:19:23;;;;;;;9.30;5.60;;;12.00;87.90;;;;;;4997155;28;20026;-62
2021/05/13 12:22:00;;;;;;;7.22;4.70;;;12.10;88.20;;;;;;4998822;28;20100;-63
2021/05/13 12:24:29;;;;;;;8.57;6.00;;;12.30;88.20;;;;;;5000267;28;20025;-64
2021/05/13 12:26:56;;;;;;;8.63;5.53;;;12.20;88.30;;;;;;5000637;28;20037;-61
2021/05/13 12:29:22;;;;;;;10.52;5.97;;;12.30;88.30;;;;;;4999285;28;20033;-62
2021/05/13 12:31:48;;;;;;;8.52;5.70;;;12.30;87.60;;;;;;4995341;28;20038;-62
2021/05/13 12:34:35;;;;;;;10.70;6.43;;;12.40;87.80;;;;;;4990810;28;20045;-62
2021/05/13 12:37:03;;;;;;;8.25;5.88;;;12.50;87.50;;;;;;4993696;28;20022;-62
2021/05/13 12:39:33;;;;;;;9.10;5.20;;;12.50;87.60;;;;;;4994698;28;20469;-63
2021/05/13 12:41:59;;;;;;;7.95;5.60;;;12.80;87.00;;;;;;4995231;28;20479;-61
2021/05/13 12:44:27;;;;;;;7.47;4.75;;;12.70;85.90;;;;;;4996143;28;20041;-63
2021/05/13 12:46:54;;;;;;;8.68;5.30;;;12.50;86.80;;;;;;4999892;28;20036;-63
2021/05/13 12:49:27;;;;;;;9.38;5.53;;;12.50;87.40;;;;;;4993991;28;20022;-63